Time;durP1;ratioP1;P1;durP2;ratioP2;P2;SDS_P1;SDS_P2;PMS_P1;PMS_P2;Temp;Humidity;BMP_temperature;BMP_pressure;BME280_temperature;BME280_humidity;BME280_pressure;Samples;Min_cycle;Max_cycle;Signal;HPM_P1;HPM_P2
2024/04/19 00:01:23;;;;;;;;;;;;;;;8.47;51.08;94087.69;4513512;26;19969;-61
2024/04/19 00:03:24;;;;;;;;;;;;;;;8.36;51.29;94088.78;4522213;26;19931;-61
2024/04/19 00:05:26;;;;;;;;;;;;;;;8.36;52.49;94090.59;4532573;26;19928;-60
2024/04/19 00:07:28;;;;;;;;;;;;;;;8.36;52.14;94091.41;4528913;26;19972;-59
2024/04/19 00:09:30;;;;;;;;;;;;;;;8.37;51.05;94100.88;4531001;26;19928;-60
2024/04/19 00:11:32;;;;;;;;;;;;;;;8.32;51.34;94089.28;4531569;26;19936;-60
2024/04/19 00:13:34;;;;;;;;;;;;;;;8.11;51.53;94100.16;4531847;26;19947;-60
2024/04/19 00:15:38;;;;;;;;;;;;;;;8.09;52.41;94097.72;4527774;26;20398;-59
2024/04/19 00:17:40;;;;;;;;;;;;;;;8.01;52.97;94100.28;4544929;26;19928;-59
2024/04/19 00:19:42;;;;;;;;;;;;;;;7.88;53.74;94110.34;4527126;26;19939;-59
2024/04/19 00:21:43;;;;;;;;;;;;;;;7.55;54.09;94108.41;4527120;26;19928;-61
2024/04/19 00:23:46;;;;;;;;;;;;;;;7.42;54.10;94099.38;4525736;26;20343;-59
2024/04/19 00:25:48;;;;;;;;;;;;;;;7.36;54.63;94112.06;4526972;26;20004;-60
2024/04/19 00:27:50;;;;;;;;;;;;;;;7.28;55.10;94109.38;4535624;26;19956;-59
2024/04/19 00:29:51;;;;;;;;;;;;;;;7.26;55.95;94116.53;4524013;26;20039;-60
2024/04/19 00:31:53;;;;;;;;;;;;;;;7.01;56.45;94107.72;4523627;26;19928;-60
2024/04/19 00:33:55;;;;;;;;;;;;;;;6.92;57.82;94106.03;4531502;26;19972;-64
2024/04/19 00:35:57;;;;;;;;;;;;;;;6.93;57.93;94107.69;4534397;26;19952;-61
2024/04/19 00:38:00;;;;;;;;;;;;;;;6.91;58.12;94114.84;4532692;26;19932;-59
2024/04/19 00:40:02;;;;;;;;;;;;;;;7.03;58.16;94110.19;4535941;26;20372;-60
2024/04/19 00:42:03;;;;;;;;;;;;;;;7.21;58.23;94103.16;4531931;26;19996;-62
2024/04/19 00:44:05;;;;;;;;;;;;;;;7.33;57.41;94104.53;4531901;26;19943;-60
2024/04/19 00:46:08;;;;;;;;;;;;;;;7.18;57.70;94106.91;4528865;26;20066;-62
2024/04/19 00:48:10;;;;;;;;;;;;;;;7.03;58.51;94112.78;4529361;26;19928;-60
2024/04/19 00:50:12;;;;;;;;;;;;;;;7.01;58.42;94114.72;4524672;26;19946;-61
2024/04/19 00:52:14;;;;;;;;;;;;;;;6.97;58.59;94109.84;4533871;26;19941;-60
2024/04/19 00:54:16;;;;;;;;;;;;;;;6.94;59.42;94107.53;4529470;26;19928;-62
2024/04/19 00:56:19;;;;;;;;;;;;;;;6.96;59.39;94107.38;4534136;26;20003;-62
2024/04/19 00:58:21;;;;;;;;;;;;;;;6.90;59.57;94116.59;4534752;26;20413;-59
2024/04/19 01:00:25;;;;;;;;;;;;;;;6.77;59.88;94113.56;4545071;26;19928;-61
2024/04/19 01:02:27;;;;;;;;;;;;;;;6.49;60.88;94110.22;4529669;26;19935;-61
2024/04/19 01:04:29;;;;;;;;;;;;;;;6.66;61.00;94113.81;4528371;26;19935;-61
2024/04/19 01:06:31;;;;;;;;;;;;;;;6.51;60.85;94116.91;4531969;26;20074;-61
2024/04/19 01:08:32;;;;;;;;;;;;;;;6.21;61.67;94117.28;4525896;26;19928;-61
2024/04/19 01:10:34;;;;;;;;;;;;;;;6.04;62.31;94111.88;4535228;26;20034;-60
2024/04/19 01:12:36;;;;;;;;;;;;;;;5.95;62.65;94117.97;4533767;26;19973;-61
2024/04/19 01:14:38;;;;;;;;;;;;;;;5.85;63.00;94115.41;4526964;26;19928;-60
2024/04/19 01:16:39;;;;;;;;;;;;;;;5.61;63.53;94126.28;4522309;26;20347;-59
2024/04/19 01:18:41;;;;;;;;;;;;;;;5.53;64.08;94126.22;4533051;26;20023;-61
2024/04/19 01:20:43;;;;;;;;;;;;;;;5.47;63.95;94135.38;4533633;26;20430;-61
2024/04/19 01:22:45;;;;;;;;;;;;;;;5.46;64.62;94128.56;4532171;26;20436;-61
2024/04/19 01:24:47;;;;;;;;;;;;;;;5.68;64.75;94127.38;4521613;26;19936;-61
2024/04/19 01:26:49;;;;;;;;;;;;;;;5.98;63.36;94124.66;4528908;26;19999;-60
2024/04/19 01:28:51;;;;;;;;;;;;;;;6.22;62.49;94127.53;4531352;26;19928;-62
2024/04/19 01:30:53;;;;;;;;;;;;;;;6.43;61.78;94126.44;4524289;26;19935;-59
2024/04/19 01:32:55;;;;;;;;;;;;;;;6.59;61.04;94125.78;4531077;26;19983;-60
2024/04/19 01:34:57;;;;;;;;;;;;;;;6.71;61.10;94124.56;4501692;26;19929;-59
2024/04/19 01:36:58;;;;;;;;;;;;;;;6.82;60.55;94126.97;4531581;26;20664;-61
2024/04/19 01:39:00;;;;;;;;;;;;;;;6.82;60.20;94128.72;4534717;26;20331;-59
2024/04/19 01:41:02;;;;;;;;;;;;;;;6.93;59.84;94128.53;4532428;26;19939;-58
2024/04/19 01:43:04;;;;;;;;;;;;;;;7.01;59.84;94127.75;4529975;26;20000;-62
2024/04/19 01:45:06;;;;;;;;;;;;;;;6.98;59.70;94131.47;4526243;26;20099;-61
2024/04/19 01:47:08;;;;;;;;;;;;;;;7.00;59.44;94139.97;4531770;26;19935;-60
2024/04/19 01:49:10;;;;;;;;;;;;;;;7.04;59.47;94136.09;4519743;26;19936;-59
2024/04/19 01:51:11;;;;;;;;;;;;;;;7.17;59.35;94136.50;4522104;26;19928;-59
2024/04/19 01:53:13;;;;;;;;;;;;;;;7.25;58.89;94132.31;4533241;26;19928;-60
2024/04/19 01:55:17;;;;;;;;;;;;;;;7.33;58.50;94135.78;4526896;26;20287;-61
2024/04/19 01:57:19;;;;;;;;;;;;;;;7.34;58.48;94134.84;4530528;26;19928;-57
2024/04/19 01:59:21;;;;;;;;;;;;;;;7.35;58.32;94130.44;4532010;26;20012;-58
2024/04/19 02:01:23;;;;;;;;;;;;;;;7.35;58.47;94133.84;4532494;26;20015;-60
2024/04/19 02:03:25;;;;;;;;;;;;;;;7.35;58.32;94133.03;4532641;26;19928;-60
2024/04/19 02:05:26;;;;;;;;;;;;;;;7.39;58.12;94136.97;4531579;26;20345;-61
2024/04/19 02:07:28;;;;;;;;;;;;;;;7.41;58.06;94134.22;4524277;26;19940;-59
2024/04/19 02:09:36;;;;;;;;;;;;;;;7.42;57.59;94144.50;4528796;26;20304;-59
2024/04/19 02:11:38;;;;;;;;;;;;;;;7.49;57.96;94131.69;4530002;26;19928;-62
2024/04/19 02:13:40;;;;;;;;;;;;;;;7.52;57.58;94136.56;4521173;26;19929;-61
2024/04/19 02:15:42;;;;;;;;;;;;;;;7.55;57.24;94144.91;4528108;26;20327;-60
2024/04/19 02:17:44;;;;;;;;;;;;;;;7.54;57.05;94137.22;4535768;26;20304;-59
2024/04/19 02:19:46;;;;;;;;;;;;;;;7.50;57.42;94141.13;4533288;26;20208;-59
2024/04/19 02:21:48;;;;;;;;;;;;;;;7.53;58.03;94141.63;4527784;26;19928;-60
2024/04/19 02:23:50;;;;;;;;;;;;;;;7.57;57.46;94137.75;4531953;26;19939;-59
2024/04/19 02:25:52;;;;;;;;;;;;;;;7.61;57.27;94135.63;4516128;26;19952;-60
2024/04/19 02:32:35;;;;;;;;;;;;;;;7.61;56.36;94145.25;4518092;26;19928;-62
2024/04/19 02:34:37;;;;;;;;;;;;;;;7.56;56.21;94150.94;4527438;26;19935;-64
2024/04/19 02:36:38;;;;;;;;;;;;;;;7.56;56.29;94151.75;4534798;26;20392;-60
2024/04/19 02:38:40;;;;;;;;;;;;;;;7.60;56.61;94144.44;4531039;26;19995;-62
2024/04/19 02:40:42;;;;;;;;;;;;;;;7.67;56.29;94144.63;4534421;26;20004;-61
2024/04/19 02:42:44;;;;;;;;;;;;;;;7.69;55.84;94143.50;4530840;26;19959;-61
2024/04/19 02:44:46;;;;;;;;;;;;;;;7.71;55.78;94144.16;4524385;26;20260;-59
2024/04/19 02:46:50;;;;;;;;;;;;;;;7.72;56.07;94145.81;4522621;26;19940;-62
2024/04/19 02:48:52;;;;;;;;;;;;;;;7.80;55.35;94148.44;4517832;26;19932;-61
2024/04/19 02:50:53;;;;;;;;;;;;;;;7.85;54.97;94141.94;4524858;26;19956;-60
2024/04/19 02:52:55;;;;;;;;;;;;;;;7.83;55.32;94147.34;4532576;26;19936;-60
2024/04/19 02:54:57;;;;;;;;;;;;;;;7.80;55.48;94148.44;4531923;26;19928;-61
2024/04/19 02:57:00;;;;;;;;;;;;;;;7.77;55.87;94153.97;4530772;26;19947;-61
2024/04/19 02:59:02;;;;;;;;;;;;;;;7.75;55.99;94150.72;4518076;26;20315;-60
2024/04/19 03:01:04;;;;;;;;;;;;;;;7.73;56.16;94149.22;4532615;26;20004;-60
2024/04/19 03:03:05;;;;;;;;;;;;;;;7.75;55.88;94145.50;4527369;26;19993;-60
2024/04/19 03:05:07;;;;;;;;;;;;;;;7.77;55.87;94150.56;4524576;26;19996;-60
2024/04/19 03:07:09;;;;;;;;;;;;;;;7.78;55.92;94152.19;4528518;26;19932;-61
2024/04/19 03:09:11;;;;;;;;;;;;;;;7.75;55.98;94158.53;4522966;26;19942;-62
2024/04/19 03:11:13;;;;;;;;;;;;;;;7.76;56.28;94160.16;4533031;26;20394;-60
2024/04/19 03:13:15;;;;;;;;;;;;;;;7.83;55.99;94159.53;4532361;26;19928;-61
2024/04/19 03:15:17;;;;;;;;;;;;;;;7.82;55.72;94155.31;4532589;26;19936;-61
2024/04/19 03:17:19;;;;;;;;;;;;;;;7.85;56.53;94154.97;4530774;26;19956;-64
2024/04/19 03:19:21;;;;;;;;;;;;;;;7.76;56.80;94151.53;4531523;26;20044;-61
2024/04/19 03:21:22;;;;;;;;;;;;;;;7.69;57.27;94151.31;4531660;26;19928;-60
2024/04/19 03:23:25;;;;;;;;;;;;;;;7.59;57.66;94156.66;4532142;26;19936;-62
2024/04/19 03:25:26;;;;;;;;;;;;;;;7.50;57.91;94160.16;4525897;26;20371;-60
2024/04/19 03:27:28;;;;;;;;;;;;;;;7.44;57.71;94158.16;4516302;26;20336;-60
2024/04/19 03:29:30;;;;;;;;;;;;;;;7.10;58.92;94163.34;4522497;26;19940;-61
2024/04/19 03:31:32;;;;;;;;;;;;;;;7.08;60.22;94162.66;4532780;26;20122;-61
2024/04/19 03:33:34;;;;;;;;;;;;;;;7.07;60.66;94167.03;4538144;26;20232;-62
2024/04/19 03:35:40;;;;;;;;;;;;;;;7.05;61.31;94176.78;4528078;26;19948;-60
2024/04/19 03:37:42;;;;;;;;;;;;;;;7.16;61.02;94176.56;4529384;26;20327;-62
2024/04/19 03:39:44;;;;;;;;;;;;;;;7.16;60.84;94180.94;4531596;26;20043;-62
2024/04/19 03:41:47;;;;;;;;;;;;;;;6.89;61.39;94179.25;4530145;26;20329;-63
2024/04/19 03:45:40;;;;;;;;;;;;;;;6.68;61.87;94187.34;4532465;26;19936;-61
2024/04/19 03:46:13;;;;;;;;;;;;;;;6.65;62.29;94182.47;4526445;26;20091;-59
2024/04/19 03:48:15;;;;;;;;;;;;;;;6.66;62.04;94184.91;4529827;26;19934;-61
2024/04/19 03:50:19;;;;;;;;;;;;;;;6.61;61.67;94186.31;4510662;26;20253;-61
2024/04/19 03:52:20;;;;;;;;;;;;;;;6.58;62.23;94182.19;4535249;26;20626;-61
2024/04/19 03:54:22;;;;;;;;;;;;;;;6.57;62.04;94189.19;4531151;26;19928;-62
2024/04/19 03:56:24;;;;;;;;;;;;;;;6.65;61.41;94188.47;4532116;26;20304;-60
2024/04/19 03:58:29;;;;;;;;;;;;;;;6.42;61.81;94195.88;4533381;26;19973;-61
2024/04/19 04:00:31;;;;;;;;;;;;;;;6.12;62.50;94199.59;4536021;26;19928;-61
2024/04/19 04:02:33;;;;;;;;;;;;;;;5.78;63.46;94200.09;4539164;26;19959;-63
2024/04/19 04:04:35;;;;;;;;;;;;;;;5.85;63.93;94201.19;4530905;26;20054;-60
2024/04/19 04:06:37;;;;;;;;;;;;;;;5.87;63.55;94201.03;4530503;26;19932;-63
2024/04/19 04:08:39;;;;;;;;;;;;;;;6.01;63.44;94199.78;4535361;26;19939;-63
2024/04/19 04:10:41;;;;;;;;;;;;;;;5.95;63.22;94214.16;4534212;26;19939;-61
2024/04/19 04:12:43;;;;;;;;;;;;;;;6.01;63.52;94210.19;4532838;26;19932;-63
2024/04/19 04:14:47;;;;;;;;;;;;;;;5.77;63.89;94210.66;4527951;26;20071;-63
2024/04/19 04:16:48;;;;;;;;;;;;;;;5.72;64.43;94217.09;4519238;26;19928;-62
2024/04/19 04:18:50;;;;;;;;;;;;;;;5.92;64.46;94212.66;4535385;26;20335;-61
2024/04/19 04:20:52;;;;;;;;;;;;;;;6.19;63.85;94220.63;4534549;26;19996;-61
2024/04/19 04:22:54;;;;;;;;;;;;;;;6.41;63.03;94219.44;4529007;26;19997;-61
2024/04/19 04:24:55;;;;;;;;;;;;;;;6.61;62.60;94225.34;4535154;26;19935;-61
2024/04/19 04:26:57;;;;;;;;;;;;;;;6.80;61.98;94222.63;4526729;26;19932;-62
2024/04/19 04:29:00;;;;;;;;;;;;;;;6.99;61.75;94216.47;4521036;26;19944;-63
2024/04/19 04:31:03;;;;;;;;;;;;;;;7.13;61.74;94221.13;4527848;26;19999;-60
2024/04/19 04:33:05;;;;;;;;;;;;;;;7.24;61.69;94221.88;4534332;26;20357;-59
2024/04/19 04:35:07;;;;;;;;;;;;;;;7.38;61.49;94221.34;4534694;26;19996;-61
2024/04/19 04:37:09;;;;;;;;;;;;;;;7.53;61.22;94219.81;4529165;26;19936;-60
2024/04/19 04:39:11;;;;;;;;;;;;;;;7.32;59.79;94220.16;4531648;26;19943;-61
2024/04/19 04:41:12;;;;;;;;;;;;;;;7.35;59.93;94222.44;4534244;26;19931;-61
2024/04/19 04:43:16;;;;;;;;;;;;;;;7.38;59.95;94231.78;4531945;26;19945;-62
2024/04/19 04:45:18;;;;;;;;;;;;;;;7.41;60.63;94230.66;4533623;26;19997;-61
2024/04/19 04:47:19;;;;;;;;;;;;;;;7.32;59.83;94238.41;4534004;26;19932;-62
2024/04/19 04:49:21;;;;;;;;;;;;;;;6.92;60.63;94233.63;4528479;26;19928;-59
2024/04/19 04:51:23;;;;;;;;;;;;;;;6.69;61.71;94235.84;4534766;26;20004;-61
2024/04/19 04:53:25;;;;;;;;;;;;;;;6.59;61.93;94237.69;4525298;26;20049;-64
2024/04/19 04:55:27;;;;;;;;;;;;;;;6.25;62.67;94238.28;4530844;26;19939;-60
2024/04/19 04:57:29;;;;;;;;;;;;;;;6.00;63.43;94243.19;4520474;26;19953;-59
2024/04/19 04:59:30;;;;;;;;;;;;;;;5.68;64.28;94246.94;4516846;26;20628;-62
2024/04/19 05:01:33;;;;;;;;;;;;;;;5.79;64.55;94253.75;4524787;26;19932;-61
2024/04/19 05:03:35;;;;;;;;;;;;;;;5.93;64.16;94257.66;4529002;26;19997;-61
2024/04/19 05:05:37;;;;;;;;;;;;;;;5.62;64.55;94260.47;4528413;26;20073;-61
2024/04/19 05:07:42;;;;;;;;;;;;;;;5.76;65.16;94256.59;4530541;26;19996;-62
2024/04/19 05:09:44;;;;;;;;;;;;;;;6.00;64.16;94260.53;4533946;26;20012;-62
2024/04/19 05:11:46;;;;;;;;;;;;;;;6.27;63.37;94263.19;4533180;26;19957;-62
2024/04/19 05:13:48;;;;;;;;;;;;;;;6.08;63.27;94265.84;4524510;26;19956;-60
2024/04/19 05:15:51;;;;;;;;;;;;;;;6.26;63.79;94258.09;4529976;26;19946;-61
2024/04/19 05:17:53;;;;;;;;;;;;;;;6.27;63.09;94259.75;4526800;26;20709;-62
2024/04/19 05:19:55;;;;;;;;;;;;;;;6.39;63.33;94268.19;4526640;26;19973;-60
2024/04/19 05:21:56;;;;;;;;;;;;;;;6.61;62.79;94265.22;4525925;26;19940;-60
2024/04/19 05:23:58;;;;;;;;;;;;;;;6.81;62.05;94270.31;4534344;26;19977;-61
2024/04/19 05:26:03;;;;;;;;;;;;;;;7.01;61.15;94266.59;4518444;26;19936;-59
2024/04/19 05:28:08;;;;;;;;;;;;;;;7.13;61.34;94264.59;4529008;26;20067;-62
2024/04/19 05:30:10;;;;;;;;;;;;;;;7.24;60.89;94266.97;4524659;26;20102;-60
2024/04/19 05:32:11;;;;;;;;;;;;;;;7.30;60.69;94269.00;4527857;26;20332;-62
2024/04/19 05:34:14;;;;;;;;;;;;;;;7.37;60.68;94269.22;4532849;26;20484;-62
2024/04/19 05:36:15;;;;;;;;;;;;;;;7.50;60.17;94272.25;4533937;26;19940;-61
2024/04/19 05:38:17;;;;;;;;;;;;;;;7.62;59.86;94272.03;4531014;26;19938;-62
2024/04/19 05:40:19;;;;;;;;;;;;;;;7.71;59.53;94276.31;4529334;26;19928;-61
2024/04/19 05:42:21;;;;;;;;;;;;;;;7.82;59.26;94280.47;4551368;25;19927;-62
2024/04/19 05:44:25;;;;;;;;;;;;;;;7.88;58.87;94279.88;4534058;26;19977;-61
2024/04/19 05:46:27;;;;;;;;;;;;;;;7.83;59.11;94274.28;4531742;26;19935;-61
2024/04/19 05:48:29;;;;;;;;;;;;;;;7.83;59.61;94271.66;4521258;26;19932;-61
2024/04/19 05:50:32;;;;;;;;;;;;;;;7.87;59.08;94268.63;4526985;26;19983;-62
2024/04/19 05:52:34;;;;;;;;;;;;;;;7.88;59.45;94277.25;4525829;26;20000;-61
2024/04/19 05:54:36;;;;;;;;;;;;;;;8.06;59.38;94272.00;4529054;26;20003;-64
2024/04/19 05:56:38;;;;;;;;;;;;;;;8.26;58.90;94277.78;4532793;26;20496;-61
2024/04/19 05:58:40;;;;;;;;;;;;;;;8.23;57.88;94275.50;4517162;26;19940;-61
2024/04/19 06:00:42;;;;;;;;;;;;;;;8.07;58.76;94289.28;4521236;26;20378;-59
2024/04/19 06:02:44;;;;;;;;;;;;;;;7.93;58.83;94280.22;4525495;26;19935;-60
2024/04/19 06:04:46;;;;;;;;;;;;;;;7.65;59.29;94282.13;4524818;26;20024;-63
2024/04/19 06:06:47;;;;;;;;;;;;;;;7.77;60.13;94283.53;4526303;26;20016;-60
2024/04/19 06:08:50;;;;;;;;;;;;;;;7.95;59.86;94278.28;4531856;26;20244;-62
2024/04/19 06:10:52;;;;;;;;;;;;;;;8.12;58.60;94281.81;4528894;26;20313;-61
2024/04/19 06:12:54;;;;;;;;;;;;;;;7.79;58.63;94277.19;4538488;26;19956;-64
2024/04/19 06:14:56;;;;;;;;;;;;;;;7.36;60.31;94276.22;4539039;26;19928;-61
2024/04/19 06:16:57;;;;;;;;;;;;;;;7.33;61.09;94279.09;4530171;26;20275;-61
2024/04/19 06:18:59;;;;;;;;;;;;;;;7.07;61.41;94283.44;4526483;26;19928;-61
2024/04/19 06:21:01;;;;;;;;;;;;;;;7.11;61.84;94276.97;4529876;26;19935;-63
2024/04/19 06:23:03;;;;;;;;;;;;;;;7.28;61.69;94273.53;4533092;26;19928;-62
2024/04/19 06:25:05;;;;;;;;;;;;;;;7.59;61.09;94270.53;4532357;26;20410;-63
2024/04/19 06:27:07;;;;;;;;;;;;;;;7.65;60.31;94264.69;4521364;26;20434;-62
2024/04/19 06:29:08;;;;;;;;;;;;;;;7.91;60.27;94269.94;4530499;26;19928;-62
2024/04/19 06:31:11;;;;;;;;;;;;;;;8.21;58.36;94257.38;4522550;26;19993;-63
2024/04/19 06:33:13;;;;;;;;;;;;;;;8.44;57.75;94257.69;4531194;26;19928;-62
2024/04/19 06:35:18;;;;;;;;;;;;;;;8.69;56.95;94247.34;4531743;26;19947;-62
2024/04/19 06:37:20;;;;;;;;;;;;;;;8.68;56.11;94256.16;4507615;26;19929;-62
2024/04/19 06:39:23;;;;;;;;;;;;;;;8.69;56.19;94252.56;4522648;26;20004;-63
2024/04/19 06:41:25;;;;;;;;;;;;;;;8.89;56.10;94250.50;4532736;26;20459;-63
2024/04/19 06:43:28;;;;;;;;;;;;;;;8.70;56.22;94254.22;4500221;26;19936;-62
2024/04/19 06:45:33;;;;;;;;;;;;;;;8.72;56.56;94255.69;4535700;26;19960;-61
2024/04/19 06:47:35;;;;;;;;;;;;;;;8.98;55.37;94252.97;4536371;26;19965;-62
2024/04/19 06:49:37;;;;;;;;;;;;;;;9.27;55.08;94243.03;4539356;26;20004;-60
2024/04/19 06:51:39;;;;;;;;;;;;;;;9.41;54.35;94253.69;4513360;26;20457;-61
2024/04/19 06:53:44;;;;;;;;;;;;;;;9.56;53.70;94243.38;4544871;26;19952;-61
2024/04/19 06:55:48;;;;;;;;;;;;;;;9.09;54.52;94240.59;4534165;26;20367;-63
2024/04/19 06:57:49;;;;;;;;;;;;;;;8.89;54.00;94243.50;4534068;26;19936;-62
2024/04/19 06:59:54;;;;;;;;;;;;;;;8.30;56.10;94248.66;4533540;26;20228;-61
2024/04/19 07:02:16;;;;;;;;;;;;;;;8.38;55.01;94247.84;4534989;26;19928;-63
2024/04/19 07:04:18;;;;;;;;;;;;;;;8.82;55.09;94239.88;4520427;26;19928;-63
2024/04/19 07:06:21;;;;;;;;;;;;;;;9.29;54.25;94247.16;4528532;26;19961;-61
2024/04/19 07:08:39;;;;;;;;;;;;;;;9.74;52.75;94237.16;4529439;26;19956;-61
2024/04/19 07:10:41;;;;;;;;;;;;;;;9.69;51.95;94242.91;4518379;26;19940;-62
2024/04/19 07:12:43;;;;;;;;;;;;;;;9.62;52.41;94244.53;4529091;26;19928;-60
2024/04/19 07:14:45;;;;;;;;;;;;;;;8.89;53.54;94246.09;4533430;26;19928;-62
2024/04/19 07:16:48;;;;;;;;;;;;;;;9.03;53.44;94244.66;4530305;26;19933;-63
2024/04/19 07:18:51;;;;;;;;;;;;;;;9.30;53.48;94243.56;4534540;26;19937;-60
2024/04/19 07:20:53;;;;;;;;;;;;;;;9.07;53.26;94240.75;4526349;26;19928;-62
2024/04/19 07:22:55;;;;;;;;;;;;;;;9.28;52.87;94242.91;4506930;26;19933;-63
2024/04/19 07:24:56;;;;;;;;;;;;;;;9.52;51.75;94247.31;4543180;26;19934;-61
2024/04/19 07:26:58;;;;;;;;;;;;;;;9.60;52.50;94244.69;4542858;26;19995;-61
2024/04/19 07:29:00;;;;;;;;;;;;;;;9.74;52.96;94243.22;4535628;26;19965;-62
2024/04/19 07:31:02;;;;;;;;;;;;;;;9.77;52.90;94237.66;4527897;26;20532;-64
2024/04/19 07:33:05;;;;;;;;;;;;;;;9.20;53.75;94230.63;4514851;26;19937;-60
2024/04/19 07:35:07;;;;;;;;;;;;;;;9.60;52.17;94230.81;4531257;26;19928;-61
2024/04/19 07:37:09;;;;;;;;;;;;;;;9.45;50.80;94233.25;4537227;26;19927;-63
2024/04/19 07:39:11;;;;;;;;;;;;;;;9.54;51.87;94229.66;4545662;26;19976;-60
2024/04/19 07:41:13;;;;;;;;;;;;;;;9.79;49.99;94225.22;4532835;26;19932;-62
2024/04/19 07:43:17;;;;;;;;;;;;;;;9.86;50.24;94212.31;4528858;26;19939;-62
2024/04/19 07:45:22;;;;;;;;;;;;;;;10.17;50.06;94216.81;4538391;26;20011;-60
2024/04/19 07:47:24;;;;;;;;;;;;;;;10.08;49.05;94221.25;4531953;26;19935;-63
2024/04/19 07:49:26;;;;;;;;;;;;;;;10.26;49.53;94215.81;4523833;26;19973;-61
2024/04/19 07:51:28;;;;;;;;;;;;;;;10.44;49.03;94215.59;4528790;26;20007;-62
2024/04/19 07:53:30;;;;;;;;;;;;;;;10.45;48.17;94218.06;4522923;26;19960;-62
2024/04/19 07:55:32;;;;;;;;;;;;;;;10.65;48.18;94207.97;4529443;26;19960;-62
2024/04/19 07:57:34;;;;;;;;;;;;;;;10.88;47.25;94215.06;4530136;26;19996;-61
2024/04/19 07:59:36;;;;;;;;;;;;;;;11.18;46.71;94207.34;4526517;26;20339;-63
2024/04/19 08:01:38;;;;;;;;;;;;;;;11.32;46.07;94217.06;4535920;26;20051;-63
2024/04/19 08:03:41;;;;;;;;;;;;;;;11.43;45.99;94208.78;4533485;26;19983;-60
2024/04/19 08:05:43;;;;;;;;;;;;;;;11.31;46.63;94209.38;4524957;26;19935;-62
2024/04/19 08:07:45;;;;;;;;;;;;;;;11.50;46.82;94213.34;4521283;26;20291;-63
2024/04/19 08:09:47;;;;;;;;;;;;;;;11.78;45.77;94216.19;4529212;26;19928;-60
2024/04/19 08:11:49;;;;;;;;;;;;;;;12.09;45.17;94206.41;4529802;26;19932;-62
2024/04/19 08:13:52;;;;;;;;;;;;;;;12.28;44.40;94197.19;4530081;26;20449;-62
2024/04/19 08:15:54;;;;;;;;;;;;;;;12.53;43.47;94196.88;4531288;26;20411;-61
2024/04/19 08:17:56;;;;;;;;;;;;;;;12.68;42.42;94186.34;4517952;26;20114;-59
2024/04/19 08:19:58;;;;;;;;;;;;;;;12.82;42.07;94188.16;4532014;26;20024;-61
2024/04/19 08:22:00;;;;;;;;;;;;;;;12.98;42.26;94186.28;4523426;26;19941;-62
2024/04/19 08:24:03;;;;;;;;;;;;;;;13.06;42.63;94179.09;4525886;26;19934;-62
2024/04/19 08:26:04;;;;;;;;;;;;;;;13.08;42.46;94182.34;4533329;26;20329;-62
2024/04/19 08:28:06;;;;;;;;;;;;;;;13.10;41.25;94180.34;4518273;26;20102;-62
2024/04/19 08:30:08;;;;;;;;;;;;;;;12.77;41.85;94184.44;4528910;26;19948;-62
2024/04/19 08:32:10;;;;;;;;;;;;;;;12.83;42.58;94184.50;4524053;26;20371;-64
2024/04/19 08:34:12;;;;;;;;;;;;;;;13.00;42.48;94185.09;4525785;26;19936;-62
2024/04/19 08:36:14;;;;;;;;;;;;;;;13.15;41.84;94184.25;4531885;26;20395;-61
2024/04/19 08:38:16;;;;;;;;;;;;;;;13.24;41.32;94185.72;4507441;26;20163;-59
2024/04/19 08:40:18;;;;;;;;;;;;;;;13.41;41.46;94188.97;4515179;26;19957;-59
2024/04/19 08:42:20;;;;;;;;;;;;;;;13.43;40.77;94187.75;4522393;26;19936;-60
2024/04/19 08:44:22;;;;;;;;;;;;;;;13.63;40.87;94190.56;4547314;26;19975;-62
2024/04/19 08:46:24;;;;;;;;;;;;;;;13.89;40.66;94179.41;4532414;26;20115;-62
2024/04/19 08:48:26;;;;;;;;;;;;;;;13.89;40.31;94176.78;4531837;26;19936;-61
2024/04/19 08:50:28;;;;;;;;;;;;;;;13.84;37.81;94175.75;4542320;26;20008;-62
2024/04/19 08:52:31;;;;;;;;;;;;;;;13.66;39.33;94181.50;4523455;26;19959;-60
2024/04/19 08:54:53;;;;;;;;;;;;;;;13.87;39.26;94173.53;4526021;26;20376;-63
2024/04/19 08:56:55;;;;;;;;;;;;;;;14.01;38.41;94177.06;4535711;26;20457;-61
2024/04/19 08:58:57;;;;;;;;;;;;;;;14.00;37.67;94170.16;4503055;26;19947;-63
2024/04/19 09:01:00;;;;;;;;;;;;;;;14.17;36.97;94173.31;4526640;26;20001;-61
2024/04/19 09:03:02;;;;;;;;;;;;;;;14.07;34.55;94168.41;4523113;26;20398;-61
2024/04/19 09:05:06;;;;;;;;;;;;;;;14.13;34.24;94169.44;4541363;26;20011;-62
2024/04/19 09:07:08;;;;;;;;;;;;;;;13.48;33.15;94166.94;4520175;26;20051;-62
2024/04/19 09:09:10;;;;;;;;;;;;;;;12.93;35.72;94168.44;4531043;26;19928;-62
2024/04/19 09:11:12;;;;;;;;;;;;;;;12.46;37.74;94162.66;4532367;26;19936;-64
2024/04/19 09:13:14;;;;;;;;;;;;;;;12.34;37.79;94164.09;4529531;26;19958;-61
2024/04/19 09:15:16;;;;;;;;;;;;;;;12.46;36.86;94167.09;4529017;26;19928;-60
2024/04/19 09:17:18;;;;;;;;;;;;;;;12.73;36.25;94167.41;4526388;26;19951;-62
2024/04/19 09:19:20;;;;;;;;;;;;;;;13.12;35.96;94169.66;4525991;26;19928;-61
2024/04/19 09:21:21;;;;;;;;;;;;;;;12.59;35.14;94162.00;4544429;26;19975;-61
2024/04/19 09:23:24;;;;;;;;;;;;;;;12.49;34.09;94169.34;4524834;26;20323;-59
2024/04/19 09:25:26;;;;;;;;;;;;;;;12.80;34.42;94160.38;4520146;26;19936;-62
2024/04/19 09:27:29;;;;;;;;;;;;;;;12.42;33.84;94163.22;4532111;26;20283;-59
2024/04/19 09:29:31;;;;;;;;;;;;;;;12.73;34.81;94152.44;4533160;26;19995;-62
2024/04/19 09:31:33;;;;;;;;;;;;;;;12.40;33.92;94167.81;4519212;26;19928;-61
2024/04/19 09:33:35;;;;;;;;;;;;;;;12.38;34.40;94156.69;4522480;26;20049;-62
2024/04/19 09:35:38;;;;;;;;;;;;;;;12.86;35.31;94151.75;4529766;26;20000;-64
2024/04/19 09:37:42;;;;;;;;;;;;;;;13.05;34.30;94151.16;4554608;26;19940;-62
2024/04/19 09:39:43;;;;;;;;;;;;;;;13.13;34.37;94142.34;4517466;26;20000;-61
2024/04/19 09:41:49;;;;;;;;;;;;;;;13.39;34.17;94138.34;4532014;26;19931;-62
2024/04/19 09:43:51;;;;;;;;;;;;;;;13.63;34.45;94132.66;4534004;26;19928;-61
2024/04/19 09:45:59;;;;;;;;;;;;;;;13.56;33.61;94131.81;4520464;26;19975;-61
2024/04/19 09:48:01;;;;;;;;;;;;;;;13.62;33.50;94125.78;4528453;26;20024;-60
2024/04/19 09:50:05;;;;;;;;;;;;;;;13.96;33.20;94125.97;4536734;26;19940;-61
2024/04/19 09:52:08;;;;;;;;;;;;;;;14.32;32.91;94121.28;4535682;26;20051;-61
2024/04/19 09:54:11;;;;;;;;;;;;;;;14.60;33.28;94123.06;4547465;26;19932;-62
2024/04/19 09:56:20;;;;;;;;;;;;;;;14.82;33.25;94113.22;4538901;25;19928;-61
2024/04/19 09:58:24;;;;;;;;;;;;;;;15.08;32.56;94111.63;4524584;26;19928;-62
2024/04/19 10:00:29;;;;;;;;;;;;;;;15.35;32.60;94120.38;4533018;26;19940;-60
2024/04/19 10:02:33;;;;;;;;;;;;;;;15.56;32.49;94106.97;4515542;26;20004;-65
2024/04/19 10:04:38;;;;;;;;;;;;;;;15.40;32.09;94112.69;4533213;26;20008;-62
2024/04/19 10:06:40;;;;;;;;;;;;;;;14.81;32.32;94114.22;4526274;26;20004;-61
2024/04/19 10:08:46;;;;;;;;;;;;;;;14.68;33.04;94109.72;4526029;26;20694;-63
2024/04/19 10:10:48;;;;;;;;;;;;;;;14.44;32.56;94112.84;4513459;26;19940;-61
2024/04/19 10:12:50;;;;;;;;;;;;;;;13.60;33.15;94108.56;4526255;26;20023;-61
2024/04/19 10:14:52;;;;;;;;;;;;;;;13.24;33.83;94109.47;4514682;26;19928;-63
2024/04/19 10:16:54;;;;;;;;;;;;;;;12.73;34.16;94105.13;4542380;26;19928;-61
2024/04/19 10:18:55;;;;;;;;;;;;;;;12.77;34.24;94095.06;4543527;26;19955;-62
2024/04/19 10:20:57;;;;;;;;;;;;;;;12.90;34.39;94101.25;4528412;26;19980;-60
2024/04/19 10:22:59;;;;;;;;;;;;;;;13.27;33.00;94102.00;4523695;26;20139;-60
2024/04/19 10:25:01;;;;;;;;;;;;;;;13.47;33.27;94096.91;4525225;26;19936;-60
2024/04/19 10:27:03;;;;;;;;;;;;;;;13.89;33.09;94089.06;4522730;26;19935;-60
2024/04/19 10:29:05;;;;;;;;;;;;;;;14.25;32.11;94085.41;4517585;26;20083;-62
2024/04/19 10:31:07;;;;;;;;;;;;;;;14.55;32.10;94088.59;4521379;26;20553;-61
2024/04/19 10:33:09;;;;;;;;;;;;;;;14.71;32.06;94077.69;4524272;26;20239;-61
2024/04/19 10:35:15;;;;;;;;;;;;;;;14.88;31.28;94072.03;4526095;26;19928;-62
2024/04/19 10:37:16;;;;;;;;;;;;;;;15.15;31.17;94076.31;4534252;26;19956;-61
2024/04/19 10:39:21;;;;;;;;;;;;;;;15.32;30.48;94071.44;4534557;26;20268;-61
2024/04/19 10:41:23;;;;;;;;;;;;;;;15.11;30.55;94074.28;4532193;26;19928;-61
2024/04/19 10:43:25;;;;;;;;;;;;;;;15.14;30.99;94068.59;4531457;26;19957;-63
2024/04/19 10:45:28;;;;;;;;;;;;;;;14.63;30.73;94066.53;4533341;26;20327;-62
2024/04/19 10:47:31;;;;;;;;;;;;;;;14.74;31.31;94065.94;4528263;26;19935;-60